Time;durP1;ratioP1;P1;durP2;ratioP2;P2;SDS_P1;SDS_P2;PMS_P1;PMS_P2;Temp;Humidity;BMP_temperature;BMP_pressure;BME280_temperature;BME280_humidity;BME280_pressure;Samples;Min_cycle;Max_cycle;Signal;HPM_P1;HPM_P2
2022/01/05 00:01:25;;;;;;;11.30;3.03;;;2.00;99.90;;;;;;5010380;28;20677;-75
2022/01/05 00:03:51;;;;;;;12.20;3.23;;;2.00;99.90;;;;;;5023734;28;20050;-75
2022/01/05 00:06:17;;;;;;;12.43;3.07;;;1.90;99.90;;;;;;5008362;28;20045;-75
2022/01/05 00:08:43;;;;;;;12.77;2.83;;;1.90;99.90;;;;;;5042794;28;20044;-75
2022/01/05 00:11:12;;;;;;;14.73;2.67;;;1.90;99.90;;;;;;5026757;28;20044;-75
2022/01/05 00:13:38;;;;;;;12.30;2.67;;;1.90;99.90;;;;;;5045291;28;20210;-75
2022/01/05 00:16:04;;;;;;;10.93;2.67;;;1.90;99.90;;;;;;5040921;28;20175;-75
2022/01/05 00:18:31;;;;;;;12.30;2.30;;;2.00;99.90;;;;;;5042560;28;20055;-75
2022/01/05 00:20:57;;;;;;;13.90;2.50;;;2.10;99.90;;;;;;5044098;28;20041;-75
2022/01/05 00:23:23;;;;;;;11.20;2.17;;;2.20;99.90;;;;;;5023328;28;20703;-75
2022/01/05 00:25:49;;;;;;;11.87;2.17;;;2.20;99.90;;;;;;5030490;28;20040;-75
2022/01/05 00:28:15;;;;;;;12.37;2.90;;;2.40;99.90;;;;;;4994863;28;20110;-75
2022/01/05 00:30:40;;;;;;;11.93;2.70;;;2.50;99.90;;;;;;5027942;28;20102;-74
2022/01/05 00:33:06;;;;;;;12.73;2.33;;;2.60;99.90;;;;;;5044433;28;20427;-75
2022/01/05 00:35:32;;;;;;;13.17;2.73;;;2.70;99.90;;;;;;5027896;28;20643;-76
2022/01/05 00:38:01;;;;;;;13.17;2.23;;;2.70;99.90;;;;;;5027619;28;20049;-75
2022/01/05 00:40:26;;;;;;;13.00;2.70;;;2.60;99.90;;;;;;5044432;28;20063;-75
2022/01/05 00:42:52;;;;;;;12.77;2.90;;;2.60;99.90;;;;;;5044450;28;20372;-75
2022/01/05 00:45:18;;;;;;;13.03;1.93;;;2.60;99.90;;;;;;5027062;28;20134;-75
2022/01/05 00:47:44;;;;;;;11.40;2.50;;;2.50;99.90;;;;;;5026873;28;20055;-75
2022/01/05 00:50:10;;;;;;;12.03;2.50;;;2.50;99.90;;;;;;5043926;28;20041;-75
2022/01/05 00:52:36;;;;;;;9.63;2.27;;;2.40;99.90;;;;;;5044309;28;20100;-75
2022/01/05 00:55:03;;;;;;;10.43;2.20;;;2.30;99.90;;;;;;5009975;28;20041;-73
2022/01/05 00:57:32;;;;;;;10.07;1.97;;;2.30;99.90;;;;;;5025261;28;20055;-74
2022/01/05 01:00:00;;;;;;;11.30;2.67;;;2.30;99.90;;;;;;5023938;28;20072;-74
2022/01/05 01:02:26;;;;;;;8.33;2.23;;;2.30;99.90;;;;;;5024136;28;20049;-74
2022/01/05 01:04:52;;;;;;;10.97;2.47;;;2.20;99.90;;;;;;5041129;28;20064;-74
2022/01/05 01:07:18;;;;;;;8.87;2.00;;;2.20;99.90;;;;;;5040229;28;20095;-74
2022/01/05 01:09:43;;;;;;;10.70;2.10;;;2.10;99.90;;;;;;5040816;28;20050;-74
2022/01/05 01:12:10;;;;;;;11.57;2.40;;;2.10;99.90;;;;;;5010558;28;20048;-74
2022/01/05 01:14:36;;;;;;;13.30;2.20;;;2.10;99.90;;;;;;5044036;28;20088;-74
2022/01/05 01:17:02;;;;;;;11.60;2.10;;;2.10;99.90;;;;;;5011012;28;20080;-75
2022/01/05 01:19:28;;;;;;;9.87;2.20;;;2.10;99.90;;;;;;5044692;28;20088;-76
2022/01/05 01:21:58;;;;;;;10.40;2.30;;;2.00;99.90;;;;;;5028086;28;20419;-75
2022/01/05 01:24:26;;;;;;;12.70;2.63;;;2.10;99.90;;;;;;5015863;28;20453;-75
2022/01/05 01:26:52;;;;;;;9.60;2.27;;;2.00;99.90;;;;;;5038945;28;20123;-75
2022/01/05 01:29:18;;;;;;;10.00;2.23;;;2.00;99.90;;;;;;5046832;28;20048;-75
2022/01/05 01:31:44;;;;;;;10.47;2.43;;;2.10;99.90;;;;;;5047670;28;20041;-75
2022/01/05 01:34:10;;;;;;;13.43;2.70;;;2.10;99.90;;;;;;5030414;28;20127;-75
2022/01/05 01:36:36;;;;;;;15.27;2.80;;;2.10;99.90;;;;;;5048700;28;20457;-75
2022/01/05 01:39:02;;;;;;;12.07;2.43;;;2.10;99.90;;;;;;5015135;28;20124;-73
2022/01/05 01:41:28;;;;;;;10.50;2.33;;;2.10;99.90;;;;;;5049027;28;20135;-73
2022/01/05 01:43:56;;;;;;;12.77;2.33;;;2.20;99.90;;;;;;5031528;28;20211;-75
2022/01/05 01:46:26;;;;;;;10.63;2.50;;;2.10;99.90;;;;;;5015571;28;20542;-75
2022/01/05 01:48:52;;;;;;;10.97;2.23;;;2.10;99.90;;;;;;5045863;28;20057;-75
2022/01/05 01:51:18;;;;;;;15.40;2.60;;;2.10;99.90;;;;;;5031280;28;20094;-75
2022/01/05 01:53:44;;;;;;;15.37;3.10;;;2.20;99.90;;;;;;5027282;28;20046;-74
2022/01/05 01:56:11;;;;;;;15.13;2.40;;;2.20;99.90;;;;;;5045807;28;20045;-74
2022/01/05 01:58:37;;;;;;;13.60;2.83;;;2.20;99.90;;;;;;5029080;28;20567;-75
2022/01/05 02:01:04;;;;;;;15.17;3.17;;;2.20;99.90;;;;;;5033100;28;20076;-75
2022/01/05 02:03:29;;;;;;;11.40;2.50;;;2.20;99.90;;;;;;5049485;28;20092;-75
2022/01/05 02:05:55;;;;;;;10.63;2.50;;;2.20;99.90;;;;;;5049689;28;20091;-75
2022/01/05 02:08:21;;;;;;;13.20;2.23;;;2.20;99.90;;;;;;5023693;28;20053;-74
2022/01/05 02:10:49;;;;;;;11.70;2.90;;;2.30;99.90;;;;;;5029719;28;20053;-75
2022/01/05 02:13:16;;;;;;;11.80;2.57;;;2.20;99.90;;;;;;5045964;28;20123;-75
2022/01/05 02:15:42;;;;;;;11.27;2.60;;;2.20;99.90;;;;;;5044631;28;20048;-74
2022/01/05 02:18:57;;;;;;;14.43;2.50;;;2.20;99.90;;;;;;5043757;28;20051;-75
2022/01/05 02:21:05;;;;;;;10.20;2.47;;;2.20;99.90;;;;;;5044670;28;20136;-74
2022/01/05 02:23:32;;;;;;;13.43;3.13;;;2.30;99.90;;;;;;5039735;28;20041;-74
2022/01/05 02:25:58;;;;;;;12.37;2.47;;;2.30;99.90;;;;;;5032974;28;20664;-74
2022/01/05 02:28:24;;;;;;;13.10;2.53;;;2.30;99.90;;;;;;5024692;28;20135;-75
2022/01/05 02:30:53;;;;;;;15.23;2.77;;;2.30;99.90;;;;;;5010649;28;20045;-75
2022/01/05 02:33:20;;;;;;;13.70;3.10;;;2.20;99.90;;;;;;5058378;28;20257;-75
2022/01/05 02:35:46;;;;;;;11.37;2.87;;;2.30;99.90;;;;;;5046578;28;20565;-74
2022/01/05 02:38:12;;;;;;;9.20;2.63;;;2.20;99.90;;;;;;5012940;28;20053;-75
2022/01/05 02:40:38;;;;;;;12.77;2.90;;;2.20;99.90;;;;;;5029329;28;20120;-75
2022/01/05 02:43:04;;;;;;;14.50;3.40;;;2.20;99.90;;;;;;5045449;28;20053;-75
2022/01/05 02:45:30;;;;;;;10.10;2.73;;;2.20;99.90;;;;;;5046227;28;20078;-75
2022/01/05 02:47:55;;;;;;;10.63;2.50;;;2.30;99.90;;;;;;5025001;28;20705;-75
2022/01/05 02:50:21;;;;;;;15.87;3.37;;;2.20;99.90;;;;;;5058135;28;20060;-75
2022/01/05 02:52:47;;;;;;;15.37;2.80;;;2.20;99.90;;;;;;5029817;28;20095;-75
2022/01/05 02:55:13;;;;;;;10.93;3.03;;;2.20;99.90;;;;;;5045552;28;20037;-75
2022/01/05 02:57:39;;;;;;;15.37;3.33;;;2.30;99.90;;;;;;5029744;28;20715;-75
2022/01/05 03:00:10;;;;;;;14.10;3.47;;;2.30;99.90;;;;;;5059912;28;20045;-75
2022/01/05 03:02:36;;;;;;;13.80;3.43;;;2.40;99.90;;;;;;5027099;28;20057;-75
2022/01/05 03:05:04;;;;;;;13.43;3.17;;;2.40;99.90;;;;;;5028193;28;20078;-75
2022/01/05 03:07:31;;;;;;;14.40;2.87;;;2.50;99.90;;;;;;5045331;28;20049;-75
2022/01/05 03:09:57;;;;;;;13.30;3.80;;;2.60;99.90;;;;;;5028475;28;20748;-74
2022/01/05 03:12:23;;;;;;;15.17;3.17;;;2.50;99.90;;;;;;5044712;28;20053;-77
2022/01/05 03:14:48;;;;;;;13.53;2.77;;;2.50;99.90;;;;;;5025636;28;20056;-77
2022/01/05 03:17:14;;;;;;;19.57;3.70;;;2.60;99.90;;;;;;4994602;28;20045;-77
2022/01/05 03:19:40;;;;;;;16.63;3.07;;;2.60;99.90;;;;;;5011743;28;20052;-76
2022/01/05 03:22:06;;;;;;;14.47;3.70;;;2.60;99.90;;;;;;5027695;28;20127;-74
2022/01/05 03:24:31;;;;;;;14.90;3.53;;;2.70;99.90;;;;;;5024379;28;20045;-75
2022/01/05 03:26:57;;;;;;;14.63;3.27;;;2.70;99.90;;;;;;5024435;28;20045;-75
2022/01/05 03:29:23;;;;;;;14.83;3.40;;;2.80;99.90;;;;;;5025586;28;20060;-72
2022/01/05 03:31:50;;;;;;;18.43;3.73;;;2.80;99.90;;;;;;5032136;28;20057;-73
2022/01/05 03:34:19;;;;;;;11.20;3.20;;;2.90;99.90;;;;;;5028175;28;20675;-73
2022/01/05 03:36:45;;;;;;;18.53;3.40;;;2.90;99.90;;;;;;5029081;28;20059;-73
2022/01/05 03:39:12;;;;;;;18.63;3.47;;;3.00;99.90;;;;;;5044324;28;20045;-77
2022/01/05 03:41:38;;;;;;;18.07;3.47;;;3.00;99.90;;;;;;5027995;28;20048;-76
2022/01/05 03:44:04;;;;;;;16.33;3.43;;;3.00;99.90;;;;;;5027500;28;20045;-76
2022/01/05 03:46:31;;;;;;;15.70;3.30;;;3.10;99.90;;;;;;5044606;28;20599;-76
2022/01/05 03:48:57;;;;;;;14.77;3.53;;;3.10;99.90;;;;;;5043357;28;20044;-76
2022/01/05 03:51:22;;;;;;;15.60;4.03;;;3.00;99.90;;;;;;5026943;28;20068;-76
2022/01/05 03:53:48;;;;;;;17.27;3.67;;;3.10;99.90;;;;;;5023856;28;20533;-76
2022/01/05 03:56:14;;;;;;;16.27;3.53;;;3.00;99.90;;;;;;5024761;28;20053;-75
2022/01/05 03:58:40;;;;;;;19.67;3.90;;;3.00;99.90;;;;;;5039570;28;20052;-76
2022/01/05 04:01:05;;;;;;;13.97;3.17;;;3.00;99.90;;;;;;5010279;28;20132;-76
2022/01/05 04:03:31;;;;;;;17.10;3.50;;;3.00;99.90;;;;;;5061423;28;20454;-76
2022/01/05 04:05:57;;;;;;;16.37;3.90;;;3.00;99.90;;;;;;5027858;28;20071;-76
2022/01/05 04:08:23;;;;;;;17.07;4.00;;;3.00;99.90;;;;;;5044556;28;20047;-76
2022/01/05 04:10:49;;;;;;;17.37;3.10;;;3.00;99.90;;;;;;5044541;28;20055;-76
2022/01/05 04:13:15;;;;;;;19.37;4.43;;;3.00;99.90;;;;;;5011455;28;20053;-75
2022/01/05 04:15:57;;;;;;;14.30;3.83;;;3.00;99.90;;;;;;5028302;28;20124;-75
2022/01/05 04:18:22;;;;;;;12.87;3.13;;;3.00;99.90;;;;;;5012309;28;20123;-76
2022/01/05 04:20:48;;;;;;;16.67;3.80;;;3.00;99.90;;;;;;5044216;28;20200;-76
2022/01/05 04:23:14;;;;;;;20.90;4.03;;;3.10;99.90;;;;;;5041311;28;20053;-75
2022/01/05 04:25:40;;;;;;;17.73;2.87;;;3.10;99.90;;;;;;5041799;28;20057;-76
2022/01/05 04:28:06;;;;;;;15.50;3.77;;;3.20;99.90;;;;;;5035629;28;20040;-75
2022/01/05 04:30:32;;;;;;;12.40;3.07;;;3.30;99.90;;;;;;5044626;28;20131;-76
2022/01/05 04:33:01;;;;;;;15.83;3.30;;;3.40;99.90;;;;;;5027568;28;20249;-75
2022/01/05 04:35:27;;;;;;;11.90;3.30;;;3.60;99.90;;;;;;5043781;28;20499;-75
2022/01/05 04:37:53;;;;;;;13.07;2.40;;;3.60;99.90;;;;;;5042645;28;20571;-76
2022/01/05 04:40:19;;;;;;;12.37;2.73;;;3.70;99.90;;;;;;5027663;28;20123;-72
2022/01/05 04:42:46;;;;;;;15.20;2.57;;;3.60;99.90;;;;;;5043585;28;20386;-73
2022/01/05 04:45:12;;;;;;;16.37;2.93;;;3.70;99.90;;;;;;5027309;28;20049;-73
2022/01/05 04:47:38;;;;;;;11.10;2.20;;;3.70;99.90;;;;;;5041812;28;20094;-72
2022/01/05 04:50:04;;;;;;;9.53;2.40;;;3.70;99.90;;;;;;5024101;28;20073;-74
2022/01/05 04:52:30;;;;;;;14.03;2.80;;;3.70;99.90;;;;;;5041857;28;20140;-74
2022/01/05 04:54:56;;;;;;;11.53;2.37;;;3.60;99.90;;;;;;5027273;28;20042;-72
2022/01/05 04:57:22;;;;;;;14.97;2.90;;;3.60;99.90;;;;;;5030039;28;20107;-72
2022/01/05 04:59:49;;;;;;;16.20;3.23;;;3.60;99.90;;;;;;5044041;28;20056;-73
2022/01/05 05:02:15;;;;;;;12.43;2.70;;;3.60;99.90;;;;;;5008785;28;20056;-72
2022/01/05 05:04:41;;;;;;;15.37;3.30;;;3.60;99.90;;;;;;5047908;28;20056;-72
2022/01/05 05:07:07;;;;;;;13.83;3.27;;;3.50;99.90;;;;;;5047573;28;20045;-74
2022/01/05 05:09:33;;;;;;;11.23;2.00;;;3.50;99.90;;;;;;5031584;28;20048;-76
2022/01/05 05:11:59;;;;;;;13.17;3.20;;;3.50;99.90;;;;;;5014197;28;20080;-77
2022/01/05 05:14:25;;;;;;;14.20;2.57;;;3.60;99.90;;;;;;5049269;28;20041;-74
2022/01/05 05:16:51;;;;;;;12.53;2.47;;;3.70;99.90;;;;;;5048530;28;20126;-74
2022/01/05 05:19:18;;;;;;;15.13;3.10;;;3.70;99.90;;;;;;5048043;28;20315;-74
2022/01/05 05:21:43;;;;;;;14.50;2.73;;;3.70;99.90;;;;;;5048766;28;20052;-73
2022/01/05 05:24:12;;;;;;;12.77;3.20;;;3.70;99.90;;;;;;5036376;28;20053;-74
2022/01/05 05:26:38;;;;;;;14.77;2.67;;;3.80;99.90;;;;;;5011942;28;20050;-74
2022/01/05 05:29:07;;;;;;;12.93;2.67;;;3.70;99.90;;;;;;5044249;28;20508;-78
2022/01/05 05:31:33;;;;;;;15.27;3.07;;;3.80;99.90;;;;;;5024294;28;20049;-76
2022/01/05 05:34:01;;;;;;;13.93;3.00;;;3.90;99.90;;;;;;5047822;28;20097;-77
2022/01/05 05:36:27;;;;;;;14.03;3.30;;;3.90;99.90;;;;;;5031514;28;20040;-77
2022/01/05 05:38:55;;;;;;;15.30;3.43;;;4.00;99.90;;;;;;5048035;28;20049;-77
2022/01/05 05:41:21;;;;;;;13.10;3.37;;;4.00;99.90;;;;;;5030693;28;20041;-77
2022/01/05 05:43:49;;;;;;;17.23;3.20;;;4.00;99.90;;;;;;5047323;28;20132;-76
2022/01/05 05:46:15;;;;;;;12.67;3.60;;;4.00;99.90;;;;;;5030396;28;20075;-77
2022/01/05 05:48:42;;;;;;;14.90;3.30;;;3.90;99.90;;;;;;5025766;28;20124;-77
2022/01/05 05:51:08;;;;;;;13.13;3.30;;;4.00;99.90;;;;;;5048754;28;20048;-77
2022/01/05 05:53:34;;;;;;;15.17;3.67;;;4.00;99.90;;;;;;5041554;28;20052;-76
2022/01/05 05:55:59;;;;;;;18.67;3.30;;;4.00;99.90;;;;;;5032451;28;20052;-74
2022/01/05 05:58:25;;;;;;;14.37;2.97;;;4.00;99.90;;;;;;5030378;28;20048;-74
2022/01/05 06:00:51;;;;;;;15.53;3.10;;;4.10;99.90;;;;;;5030216;28;20055;-75
2022/01/05 06:03:17;;;;;;;14.60;3.20;;;4.10;99.90;;;;;;5030195;28;20060;-76
2022/01/05 06:05:43;;;;;;;18.57;3.10;;;4.10;99.90;;;;;;5031054;28;20126;-75
2022/01/05 06:08:08;;;;;;;16.47;3.67;;;4.20;99.90;;;;;;5029852;28;20049;-75
2022/01/05 06:10:34;;;;;;;13.77;3.70;;;4.20;99.90;;;;;;5047338;28;20072;-76
2022/01/05 06:13:00;;;;;;;14.37;2.93;;;4.20;99.90;;;;;;5047935;28;20045;-77
2022/01/05 06:15:26;;;;;;;18.03;3.70;;;4.20;99.90;;;;;;5013826;28;20079;-75
2022/01/05 06:17:52;;;;;;;15.33;3.20;;;4.20;99.90;;;;;;5030610;28;20087;-75
2022/01/05 06:20:18;;;;;;;18.20;3.73;;;4.30;99.90;;;;;;5046780;28;20152;-75
2022/01/05 06:22:44;;;;;;;14.57;3.37;;;4.10;99.90;;;;;;5030902;28;20055;-75
2022/01/05 06:25:11;;;;;;;17.97;3.87;;;4.10;99.90;;;;;;5029236;28;20053;-78
2022/01/05 06:27:38;;;;;;;14.20;2.93;;;4.10;99.90;;;;;;5039737;28;20137;-77
2022/01/05 06:30:06;;;;;;;17.47;2.87;;;4.10;99.90;;;;;;5044084;28;20576;-76
2022/01/05 06:32:41;;;;;;;18.57;3.43;;;4.20;99.90;;;;;;5028763;28;20053;-75
2022/01/05 06:35:07;;;;;;;16.33;3.50;;;4.20;99.90;;;;;;5032256;28;20644;-76
2022/01/05 06:37:33;;;;;;;16.80;3.23;;;4.20;99.90;;;;;;5046685;28;20048;-76
2022/01/05 06:40:02;;;;;;;11.67;2.53;;;4.20;99.90;;;;;;5030118;28;20063;-76
2022/01/05 06:42:29;;;;;;;16.85;2.78;;;4.20;99.90;;;;;;5047370;28;20617;-78
2022/01/05 06:44:55;;;;;;;16.67;3.57;;;4.20;99.90;;;;;;5044989;28;20102;-76
2022/01/05 06:47:20;;;;;;;16.80;2.80;;;4.20;99.90;;;;;;5045695;28;20495;-76
2022/01/05 06:49:46;;;;;;;15.43;3.13;;;4.20;99.90;;;;;;5027230;28;20065;-76
2022/01/05 06:52:12;;;;;;;12.73;3.30;;;4.20;99.90;;;;;;5025449;28;20099;-78
2022/01/05 06:54:42;;;;;;;19.73;3.50;;;4.10;99.90;;;;;;5026147;28;20049;-77
2022/01/05 06:57:08;;;;;;;17.30;3.60;;;4.20;99.90;;;;;;5024905;28;20103;-77
2022/01/05 06:59:35;;;;;;;17.43;3.17;;;4.20;99.90;;;;;;5009481;28;20544;-76
2022/01/05 07:02:02;;;;;;;18.67;3.80;;;4.20;99.90;;;;;;5025655;28;20090;-77
2022/01/05 07:04:31;;;;;;;19.03;3.23;;;4.20;99.90;;;;;;5013577;28;20500;-76
2022/01/05 07:06:57;;;;;;;11.97;2.87;;;4.20;99.90;;;;;;5047521;28;20048;-77
2022/01/05 07:09:23;;;;;;;14.17;2.30;;;4.20;99.90;;;;;;5048378;28;20438;-77
2022/01/05 07:11:48;;;;;;;10.27;2.37;;;4.20;99.90;;;;;;5029826;28;20705;-76
2022/01/05 07:14:14;;;;;;;9.73;2.27;;;4.20;99.90;;;;;;5042984;28;20045;-78
2022/01/05 07:16:40;;;;;;;8.70;2.00;;;4.20;99.90;;;;;;5011953;28;20049;-76
2022/01/05 07:19:13;;;;;;;9.77;2.07;;;4.20;99.90;;;;;;5012393;28;20124;-73
2022/01/05 07:21:39;;;;;;;9.53;2.00;;;4.20;99.90;;;;;;5029524;28;20064;-74
2022/01/05 07:24:11;;;;;;;10.17;2.10;;;4.10;99.90;;;;;;5018705;28;20045;-73
2022/01/05 07:26:39;;;;;;;12.20;2.03;;;4.10;99.90;;;;;;5025937;28;20041;-73
2022/01/05 07:29:05;;;;;;;8.57;2.10;;;4.10;99.90;;;;;;5025246;28;20080;-73
2022/01/05 07:31:31;;;;;;;9.70;2.03;;;4.10;99.90;;;;;;5025707;28;20636;-75
2022/01/05 07:33:56;;;;;;;9.90;2.30;;;4.10;99.90;;;;;;5025975;28;20047;-76
2022/01/05 07:36:22;;;;;;;11.60;2.13;;;4.10;99.90;;;;;;5043997;28;20040;-75
2022/01/05 07:38:48;;;;;;;8.07;1.30;;;4.10;99.90;;;;;;5012815;28;20052;-75
2022/01/05 07:41:14;;;;;;;9.17;2.03;;;4.10;99.90;;;;;;5029945;28;20557;-76
2022/01/05 07:43:40;;;;;;;10.33;1.83;;;4.10;99.90;;;;;;5040252;28;20049;-76
2022/01/05 07:46:06;;;;;;;10.60;1.97;;;4.10;99.90;;;;;;5024218;28;20049;-76
2022/01/05 07:48:32;;;;;;;12.63;2.10;;;4.10;99.90;;;;;;4994878;28;20476;-76
2022/01/05 07:50:58;;;;;;;9.13;1.87;;;4.10;99.90;;;;;;5045309;28;20049;-77
2022/01/05 07:53:24;;;;;;;9.63;2.03;;;4.10;99.90;;;;;;5026591;28;20053;-76
2022/01/05 07:55:49;;;;;;;13.20;2.33;;;4.20;99.90;;;;;;5046611;28;20142;-76
2022/01/05 07:58:15;;;;;;;10.57;2.50;;;4.30;99.90;;;;;;5045399;28;20461;-76
2022/01/05 08:00:41;;;;;;;15.13;2.43;;;4.30;99.90;;;;;;5046150;28;20054;-77
2022/01/05 08:03:07;;;;;;;13.10;2.30;;;4.40;99.90;;;;;;5038685;28;20128;-76
2022/01/05 08:05:33;;;;;;;15.00;2.50;;;4.50;99.90;;;;;;5025240;28;20128;-77
2022/01/05 08:07:59;;;;;;;14.47;2.77;;;4.60;99.90;;;;;;5018896;28;20098;-78
2022/01/05 08:10:25;;;;;;;13.50;2.57;;;4.70;99.90;;;;;;5010168;28;20049;-77
2022/01/05 08:12:50;;;;;;;12.57;2.50;;;4.70;99.90;;;;;;5045246;28;20535;-77
2022/01/05 08:15:16;;;;;;;14.43;2.20;;;4.70;99.90;;;;;;5027017;28;20041;-77
2022/01/05 08:17:43;;;;;;;16.13;2.83;;;4.80;99.90;;;;;;5019102;28;20511;-76
2022/01/05 08:20:13;;;;;;;15.70;3.03;;;4.90;99.90;;;;;;5025853;28;20139;-76
2022/01/05 08:22:40;;;;;;;;;;;4.90;99.90;;;;;;5030795;28;20052;-76
2022/01/05 08:25:11;;;;;;;14.43;3.03;;;5.00;99.90;;;;;;5039911;28;19921;-76
2022/01/05 08:27:45;;;;;;;14.10;2.20;;;5.00;99.90;;;;;;5025243;28;20052;-77
2022/01/05 08:30:16;;;;;;;15.80;2.83;;;5.10;99.90;;;;;;5027746;28;20822;-76
2022/01/05 08:32:43;;;;;;;16.15;2.97;;;5.10;99.90;;;;;;5028624;28;20083;-76
2022/01/05 08:35:10;;;;;;;14.33;2.63;;;5.10;99.90;;;;;;5027182;28;20056;-78
2022/01/05 08:37:38;;;;;;;9.60;2.30;;;5.10;99.90;;;;;;5029256;28;20963;-76
2022/01/05 08:40:05;;;;;;;13.80;2.60;;;5.20;99.90;;;;;;5050361;28;20059;-77
2022/01/05 08:42:30;;;;;;;14.67;2.67;;;5.10;99.90;;;;;;5048331;28;20060;-76
2022/01/05 08:44:59;;;;;;;14.87;2.83;;;5.10;99.90;;;;;;5018293;28;20057;-78
2022/01/05 08:47:24;;;;;;;18.63;3.13;;;5.20;99.90;;;;;;5050815;28;20052;-77
2022/01/05 08:49:50;;;;;;;12.93;2.77;;;5.30;99.90;;;;;;5031198;28;20064;-77
2022/01/05 08:52:16;;;;;;;12.73;2.33;;;5.30;99.90;;;;;;5043000;28;20090;-80
2022/01/05 08:54:42;;;;;;;12.67;2.60;;;5.40;99.90;;;;;;5037267;28;20124;-76
2022/01/05 08:57:08;;;;;;;12.47;2.17;;;5.40;99.90;;;;;;5034862;28;20064;-76
2022/01/05 08:59:34;;;;;;;8.57;1.73;;;5.40;99.90;;;;;;5000256;28;20205;-76
2022/01/05 09:02:00;;;;;;;14.17;1.80;;;5.40;99.90;;;;;;5046621;28;20045;-76
2022/01/05 09:04:26;;;;;;;9.73;1.80;;;5.50;99.90;;;;;;5028809;28;20048;-76
2022/01/05 09:06:53;;;;;;;12.53;1.83;;;5.50;99.90;;;;;;5032461;28;20167;-77
2022/01/05 09:09:19;;;;;;;13.97;2.40;;;5.50;99.90;;;;;;5038827;28;20419;-77
2022/01/05 09:11:45;;;;;;;10.10;1.70;;;5.50;99.90;;;;;;5035682;28;20262;-76
2022/01/05 09:14:11;;;;;;;11.43;1.93;;;5.70;99.90;;;;;;5011140;28;20053;-77
2022/01/05 09:16:37;;;;;;;8.20;1.80;;;5.70;99.90;;;;;;5030117;28;20535;-76
2022/01/05 09:19:04;;;;;;;11.67;1.80;;;5.70;99.90;;;;;;5044238;28;20045;-76
2022/01/05 09:21:29;;;;;;;10.87;1.90;;;5.70;99.90;;;;;;5032707;28;20647;-76
2022/01/05 09:23:55;;;;;;;13.47;2.40;;;5.80;99.90;;;;;;5047917;28;20130;-76
2022/01/05 09:26:21;;;;;;;14.50;2.50;;;5.80;99.90;;;;;;5048594;28;20072;-76
2022/01/05 09:28:49;;;;;;;11.67;2.73;;;5.80;99.90;;;;;;5049010;28;20406;-76
2022/01/05 09:31:15;;;;;;;13.77;2.43;;;5.80;99.90;;;;;;5031031;28;20041;-77
2022/01/05 09:33:41;;;;;;;11.67;2.20;;;5.80;99.90;;;;;;5046770;28;20081;-76
2022/01/05 09:36:30;;;;;;;14.93;3.23;;;5.80;99.90;;;;;;5044821;28;20149;-76
2022/01/05 09:42:05;;;;;;;20.17;3.70;;;5.90;99.90;;;;;;5044175;28;20131;-77
2022/01/05 09:44:35;;;;;;;16.70;2.97;;;5.90;99.90;;;;;;5058584;28;20496;-77
2022/01/05 09:47:06;;;;;;;17.35;2.90;;;5.80;99.90;;;;;;5044151;28;20049;-76
2022/01/05 09:49:38;;;;;;;15.20;2.80;;;5.80;99.90;;;;;;5035805;28;20071;-76
2022/01/05 09:52:09;;;;;;;20.03;3.77;;;5.90;99.90;;;;;;5041296;28;20043;-76
2022/01/05 09:54:37;;;;;;;21.63;4.40;;;5.80;99.90;;;;;;5024609;28;20053;-76
2022/01/05 09:57:05;;;;;;;20.77;4.00;;;6.00;99.90;;;;;;5035843;28;20114;-76
2022/01/05 09:59:34;;;;;;;22.27;4.40;;;6.00;99.90;;;;;;5044742;28;20517;-77
2022/01/05 10:02:02;;;;;;;21.67;4.37;;;6.10;99.90;;;;;;5040505;28;20091;-76
2022/01/05 10:04:31;;;;;;;20.90;3.50;;;6.10;99.90;;;;;;5040093;28;20044;-74
2022/01/05 10:06:57;;;;;;;23.75;3.90;;;6.10;99.90;;;;;;5023439;28;20656;-73
2022/01/05 10:09:26;;;;;;;26.00;4.93;;;6.10;99.90;;;;;;5000740;28;20084;-73
2022/01/05 10:11:52;;;;;;;17.87;3.80;;;6.20;99.90;;;;;;5040768;28;20488;-73
2022/01/05 10:14:18;;;;;;;23.37;4.80;;;6.20;99.90;;;;;;5034182;28;20077;-73
2022/01/05 10:17:36;;;;;;;22.42;4.72;;;6.30;99.90;;;;;;5019180;28;20099;-74
2022/01/05 10:20:08;;;;;;;20.43;3.97;;;6.40;99.90;;;;;;4978268;28;20117;-73
2022/01/05 10:22:41;;;;;;;24.52;3.80;;;6.40;99.90;;;;;;5031544;28;20528;-73
2022/01/05 10:25:15;;;;;;;19.77;3.43;;;6.40;99.90;;;;;;5037160;28;20123;-73
2022/01/05 10:27:42;;;;;;;21.53;3.97;;;6.40;99.90;;;;;;5041723;28;20056;-72
2022/01/05 10:30:12;;;;;;;23.70;4.82;;;6.60;99.90;;;;;;5040803;28;20106;-73
2022/01/05 10:32:39;;;;;;;21.00;4.83;;;6.60;99.90;;;;;;5030761;28;20071;-73
2022/01/05 10:35:11;;;;;;;23.70;3.97;;;6.70;99.90;;;;;;5041711;28;20084;-73
2022/01/05 10:37:41;;;;;;;23.43;4.73;;;6.60;99.90;;;;;;5042477;28;20059;-73
2022/01/05 10:40:19;;;;;;;21.58;4.13;;;6.70;99.90;;;;;;5026714;28;20045;-73
2022/01/05 10:42:47;;;;;;;22.13;3.80;;;6.70;99.90;;;;;;5036259;28;20134;-73
2022/01/05 10:45:46;;;;;;;23.50;4.65;;;6.70;99.90;;;;;;5026558;28;20052;-73
2022/01/05 10:48:14;;;;;;;19.50;3.60;;;6.70;99.90;;;;;;5040444;28;20190;-72
2022/01/05 10:50:42;;;;;;;21.38;3.90;;;6.70;99.90;;;;;;5020174;28;20052;-73
2022/01/05 10:53:08;;;;;;;22.80;5.17;;;6.80;99.90;;;;;;5022624;28;20049;-73
2022/01/05 10:55:45;;;;;;;13.38;3.22;;;6.80;99.90;;;;;;5023406;28;20526;-73
2022/01/05 10:58:15;;;;;;;18.98;4.13;;;6.90;99.90;;;;;;5037816;28;20056;-74
2022/01/05 11:00:42;;;;;;;22.33;4.18;;;7.00;99.90;;;;;;5043101;28;20037;-76
2022/01/05 11:03:32;;;;;;;21.70;4.18;;;7.00;99.90;;;;;;5026800;28;20041;-77
2022/01/05 11:06:10;;;;;;;20.20;3.42;;;7.10;99.90;;;;;;5044169;28;20167;-75
2022/01/05 11:08:55;;;;;;;16.10;3.33;;;7.20;99.90;;;;;;5045471;28;20436;-73
2022/01/05 11:11:43;;;;;;;18.95;3.90;;;7.20;99.90;;;;;;5025581;28;20099;-73
2022/01/05 11:14:15;;;;;;;16.50;3.03;;;7.30;99.90;;;;;;5036118;28;20102;-76
2022/01/05 11:16:43;;;;;;;14.77;2.67;;;7.30;99.90;;;;;;5050162;28;20048;-82
2022/01/05 11:19:16;;;;;;;20.63;4.32;;;7.40;99.90;;;;;;5039311;28;20056;-76
2022/01/05 11:21:57;;;;;;;16.08;3.38;;;7.40;99.90;;;;;;5038485;28;20103;-76
2022/01/05 11:24:24;;;;;;;17.00;2.90;;;7.40;99.90;;;;;;5038351;28;20049;-72
2022/01/05 11:26:50;;;;;;;15.10;3.05;;;7.40;99.90;;;;;;5027881;28;20060;-72
2022/01/05 11:29:17;;;;;;;14.63;2.75;;;7.50;99.90;;;;;;5041566;28;20044;-74
2022/01/05 11:31:45;;;;;;;15.98;3.03;;;7.50;99.90;;;;;;5033724;28;20049;-74
2022/01/05 11:34:11;;;;;;;15.95;3.25;;;7.50;99.90;;;;;;5023173;28;20045;-74
2022/01/05 11:36:42;;;;;;;12.98;2.50;;;7.50;99.90;;;;;;5028182;28;20049;-75
2022/01/05 11:39:11;;;;;;;14.93;2.85;;;7.60;99.90;;;;;;5024795;28;20056;-78
2022/01/05 11:41:42;;;;;;;10.60;2.42;;;7.70;99.90;;;;;;5035575;28;20040;-74
2022/01/05 11:44:11;;;;;;;15.63;2.95;;;7.70;99.90;;;;;;5022362;28;20084;-74
2022/01/05 11:46:37;;;;;;;14.48;2.10;;;7.70;99.90;;;;;;5036035;28;20055;-75
2022/01/05 11:49:07;;;;;;;9.95;1.98;;;7.70;99.90;;;;;;5027822;28;20049;-74
2022/01/05 11:51:48;;;;;;;11.90;2.17;;;7.70;99.90;;;;;;5031851;28;20041;-74
2022/01/05 11:54:22;;;;;;;15.93;3.17;;;7.70;99.90;;;;;;5024943;28;20120;-74
2022/01/05 11:56:57;;;;;;;14.25;2.80;;;7.70;99.90;;;;;;5032261;28;20049;-74
2022/01/05 11:59:33;;;;;;;14.48;2.85;;;7.60;99.90;;;;;;5031234;28;20087;-74
2022/01/05 12:02:18;;;;;;;11.27;2.00;;;7.60;99.90;;;;;;5009760;28;20311;-76
2022/01/05 12:04:53;;;;;;;11.73;1.77;;;7.50;99.90;;;;;;5021895;28;20110;-74
2022/01/05 12:07:38;;;;;;;11.23;2.20;;;7.40;99.90;;;;;;5026477;28;20049;-76
2022/01/05 12:10:12;;;;;;;12.07;1.75;;;7.40;99.90;;;;;;5030030;28;20407;-74
2022/01/05 12:12:52;;;;;;;11.63;1.95;;;7.30;99.90;;;;;;5062176;28;20136;-75
2022/01/05 12:15:45;;;;;;;12.95;1.92;;;7.30;99.90;;;;;;5035136;28;20045;-75
2022/01/05 12:18:41;;;;;;;12.10;2.10;;;7.30;99.90;;;;;;5016752;28;20120;-76
2022/01/05 12:21:41;;;;;;;10.13;2.30;;;7.30;99.90;;;;;;5012593;28;20069;-75
2022/01/05 12:24:11;;;;;;;11.18;2.20;;;7.30;99.90;;;;;;5038528;28;20575;-76
2022/01/05 12:26:37;;;;;;;13.63;2.78;;;7.40;99.90;;;;;;5027216;28;20069;-75
2022/01/05 12:29:03;;;;;;;13.98;3.22;;;7.40;99.90;;;;;;4993971;28;20045;-79
2022/01/05 12:31:50;;;;;;;13.50;3.13;;;7.30;99.90;;;;;;5010296;28;20053;-75
2022/01/05 12:34:54;;;;;;;12.90;2.42;;;7.40;99.90;;;;;;5044622;28;20515;-72
2022/01/05 12:37:52;;;;;;;13.57;2.40;;;7.50;99.90;;;;;;5045413;28;20052;-72
2022/01/05 12:40:24;;;;;;;17.10;2.95;;;7.40;99.90;;;;;;5028570;28;20064;-73
2022/01/05 12:43:10;;;;;;;16.88;3.55;;;7.50;99.90;;;;;;5046189;28;20470;-72
2022/01/05 12:45:45;;;;;;;16.48;3.10;;;7.60;99.90;;;;;;5045752;28;20712;-75
2022/01/05 12:48:33;;;;;;;18.27;3.00;;;7.60;99.90;;;;;;5033063;28;20057;-75
2022/01/05 12:51:11;;;;;;;13.32;2.38;;;7.60;99.90;;;;;;5045909;28;20102;-75
2022/01/05 12:54:02;;;;;;;16.52;3.38;;;7.70;99.90;;;;;;5041149;28;20416;-75
2022/01/05 12:56:42;;;;;;;16.23;2.60;;;7.70;99.90;;;;;;5019319;28;20124;-76
2022/01/05 12:59:16;;;;;;;13.05;3.05;;;7.60;99.90;;;;;;5056965;28;20048;-76